Al Udeid, Qatar

12:51 PM AST on February 06, 2016 (GMT +0300)
Villas | | Change Station
CLOSE
Current Station
Personal Weather Station
Location: Doha, DOHA
Elevation: 46 ft
Nearby Weather Stations

Elev 46 ft 25.29 °N, 51.45 °E | Updated 14 minutes ago

Clear
Clear
78.8 °F
Feels Like 78 °F
N
0.0
Wind Variable Wind from WSW

Today
High -- | Low -- °F
--% Chance of Precip.
Yesterday
High -- | Low -- °F
Precip. -- in
Pressure 30.09 in
Visibility -9999.0 miles
Clouds
Heat Index 78 °F
Dew Point 43 °F
Humidity 28%
Rainfall 0.00 in
Snow Depth Not available.
6:15 AM 5:22 PM
Waning Crescent, 6% visible
METAR OTBD 060930Z VRB02KT CAVOK 24/M02 Q1019 NOSIG
Pressure 30.09 in
Visibility -9999.0 miles
Clouds
Heat Index 78 °F
Dew Point 43 °F
Humidity 28%
Rainfall 0.00 in
Snow Depth Not available.
6:15 AM 5:22 PM
Waning Crescent, 6% visible
METAR OTBD 060930Z VRB02KT CAVOK 24/M02 Q1019 NOSIG

10-Day Weather Forecast

No radar image for this location.
×

Almanac

Astronomy

Feb. 06, 2016 Rise Set
Actual Time
Civil Twilight
Nautical Twilight
Astronomical Twilight
Moon
Length of Visible Light
Length of Day
Tomorrow will be .
, % of the Moon is Illuminated

Today's Extremes

Country Highs Country Lows

Community

WunderPhotos

Upload Photos

1,890,933 photos uploaded!

WunderBlog® & News

Nearby

Air Quality

  Air Quality AQ Index Pollutant
Not available.

Snow Depth

Station Depth Elevation

Earthquake Activity

City Distance Mag. Time & Date
Minimum magnitude displayed is 2.5.

Coastal Water Temperatures

Place Temperature

Stations

Nearby Weather Stations

Station Location Temp. Windchill Dew Point Humidity Wind Precip. Elev Updated Type